sensor_id;sensor_type;location;lat;lon;timestamp;P1;durP1;ratioP1;P2;durP2;ratioP2
83018;SDS011;72834;40.104;18.336;2023-09-19T00:01:39;12.10;;;6.85;;
83018;SDS011;72834;40.104;18.336;2023-09-19T00:04:07;11.38;;;6.00;;
83018;SDS011;72834;40.104;18.336;2023-09-19T00:06:35;11.18;;;6.25;;
83018;SDS011;72834;40.104;18.336;2023-09-19T00:09:02;16.83;;;6.80;;
83018;SDS011;72834;40.104;18.336;2023-09-19T00:11:29;14.75;;;6.30;;
83018;SDS011;72834;40.104;18.336;2023-09-19T00:13:56;11.93;;;6.85;;
83018;SDS011;72834;40.104;18.336;2023-09-19T00:16:24;15.07;;;6.10;;
83018;SDS011;72834;40.104;18.336;2023-09-19T00:18:51;16.80;;;6.60;;
83018;SDS011;72834;40.104;18.336;2023-09-19T00:21:17;16.05;;;7.07;;
83018;SDS011;72834;40.104;18.336;2023-09-19T00:23:44;13.77;;;6.20;;
83018;SDS011;72834;40.104;18.336;2023-09-19T00:26:10;12.98;;;5.78;;
83018;SDS011;72834;40.104;18.336;2023-09-19T00:28:38;14.60;;;7.82;;
83018;SDS011;72834;40.104;18.336;2023-09-19T00:31:07;11.52;;;5.43;;
83018;SDS011;72834;40.104;18.336;2023-09-19T00:33:33;11.82;;;5.60;;
83018;SDS011;72834;40.104;18.336;2023-09-19T00:35:59;13.48;;;6.07;;
83018;SDS011;72834;40.104;18.336;2023-09-19T00:38:29;14.32;;;5.82;;
83018;SDS011;72834;40.104;18.336;2023-09-19T00:40:57;15.35;;;6.28;;
83018;SDS011;72834;40.104;18.336;2023-09-19T00:43:26;12.95;;;7.40;;
83018;SDS011;72834;40.104;18.336;2023-09-19T00:45:53;16.08;;;7.68;;
83018;SDS011;72834;40.104;18.336;2023-09-19T00:48:20;12.77;;;6.45;;
83018;SDS011;72834;40.104;18.336;2023-09-19T00:50:48;17.40;;;7.53;;
83018;SDS011;72834;40.104;18.336;2023-09-19T00:53:20;17.95;;;7.35;;
83018;SDS011;72834;40.104;18.336;2023-09-19T00:55:48;16.90;;;6.88;;
83018;SDS011;72834;40.104;18.336;2023-09-19T00:58:29;15.25;;;6.60;;
83018;SDS011;72834;40.104;18.336;2023-09-19T01:01:18;16.90;;;7.82;;
83018;SDS011;72834;40.104;18.336;2023-09-19T01:03:44;15.75;;;7.80;;
83018;SDS011;72834;40.104;18.336;2023-09-19T01:06:11;13.95;;;6.25;;
83018;SDS011;72834;40.104;18.336;2023-09-19T01:08:37;22.00;;;7.05;;
83018;SDS011;72834;40.104;18.336;2023-09-19T01:11:09;11.73;;;6.18;;
83018;SDS011;72834;40.104;18.336;2023-09-19T01:13:47;12.20;;;6.90;;
83018;SDS011;72834;40.104;18.336;2023-09-19T01:30:35;14.63;;;7.72;;
83018;SDS011;72834;40.104;18.336;2023-09-19T01:33:05;16.65;;;8.00;;
83018;SDS011;72834;40.104;18.336;2023-09-19T01:35:33;17.20;;;7.85;;
83018;SDS011;72834;40.104;18.336;2023-09-19T01:37:59;17.08;;;7.53;;
83018;SDS011;72834;40.104;18.336;2023-09-19T01:40:25;13.50;;;7.07;;
83018;SDS011;72834;40.104;18.336;2023-09-19T01:51:07;19.08;;;7.82;;
83018;SDS011;72834;40.104;18.336;2023-09-19T01:53:50;21.95;;;7.68;;
83018;SDS011;72834;40.104;18.336;2023-09-19T01:56:30;16.48;;;7.10;;
83018;SDS011;72834;40.104;18.336;2023-09-19T01:59:04;15.73;;;7.72;;
83018;SDS011;72834;40.104;18.336;2023-09-19T02:01:36;16.27;;;7.82;;
83018;SDS011;72834;40.104;18.336;2023-09-19T02:04:03;15.18;;;8.32;;
83018;SDS011;72834;40.104;18.336;2023-09-19T02:06:30;18.50;;;8.30;;
83018;SDS011;72834;40.104;18.336;2023-09-19T02:08:56;17.25;;;8.48;;
83018;SDS011;72834;40.104;18.336;2023-09-19T02:11:25;15.98;;;7.93;;
83018;SDS011;72834;40.104;18.336;2023-09-19T02:13:51;18.02;;;7.78;;
83018;SDS011;72834;40.104;18.336;2023-09-19T02:16:19;14.35;;;7.13;;
83018;SDS011;72834;40.104;18.336;2023-09-19T02:18:47;12.45;;;7.05;;
83018;SDS011;72834;40.104;18.336;2023-09-19T02:21:15;12.48;;;6.53;;
83018;SDS011;72834;40.104;18.336;2023-09-19T02:23:42;15.93;;;7.28;;
83018;SDS011;72834;40.104;18.336;2023-09-19T02:26:09;15.00;;;7.57;;
83018;SDS011;72834;40.104;18.336;2023-09-19T02:28:37;16.20;;;6.07;;
83018;SDS011;72834;40.104;18.336;2023-09-19T02:31:03;15.27;;;7.05;;
83018;SDS011;72834;40.104;18.336;2023-09-19T02:33:30;11.07;;;6.10;;
83018;SDS011;72834;40.104;18.336;2023-09-19T02:36:00;14.52;;;6.40;;
83018;SDS011;72834;40.104;18.336;2023-09-19T02:38:29;12.85;;;6.28;;
83018;SDS011;72834;40.104;18.336;2023-09-19T02:40:55;11.32;;;6.07;;
83018;SDS011;72834;40.104;18.336;2023-09-19T02:43:21;14.20;;;6.72;;
83018;SDS011;72834;40.104;18.336;2023-09-19T02:45:48;12.00;;;5.70;;
83018;SDS011;72834;40.104;18.336;2023-09-19T02:48:20;13.90;;;6.00;;
83018;SDS011;72834;40.104;18.336;2023-09-19T02:50:49;14.57;;;6.78;;
83018;SDS011;72834;40.104;18.336;2023-09-19T02:53:15;14.45;;;6.93;;
83018;SDS011;72834;40.104;18.336;2023-09-19T02:55:41;14.10;;;7.07;;
83018;SDS011;72834;40.104;18.336;2023-09-19T02:58:08;18.80;;;7.70;;
83018;SDS011;72834;40.104;18.336;2023-09-19T03:00:36;16.55;;;6.40;;
83018;SDS011;72834;40.104;18.336;2023-09-19T03:03:02;15.65;;;6.90;;
83018;SDS011;72834;40.104;18.336;2023-09-19T03:05:28;14.00;;;6.38;;
83018;SDS011;72834;40.104;18.336;2023-09-19T03:07:58;14.13;;;6.45;;
83018;SDS011;72834;40.104;18.336;2023-09-19T03:10:25;14.93;;;6.88;;
83018;SDS011;72834;40.104;18.336;2023-09-19T03:12:53;13.98;;;5.88;;
83018;SDS011;72834;40.104;18.336;2023-09-19T03:15:19;14.48;;;6.70;;
83018;SDS011;72834;40.104;18.336;2023-09-19T03:17:47;15.73;;;6.90;;
83018;SDS011;72834;40.104;18.336;2023-09-19T03:20:14;15.95;;;7.00;;
83018;SDS011;72834;40.104;18.336;2023-09-19T03:22:42;12.30;;;7.03;;
83018;SDS011;72834;40.104;18.336;2023-09-19T03:25:09;13.00;;;6.78;;
83018;SDS011;72834;40.104;18.336;2023-09-19T03:27:39;14.45;;;6.90;;
83018;SDS011;72834;40.104;18.336;2023-09-19T03:30:05;17.85;;;6.93;;
83018;SDS011;72834;40.104;18.336;2023-09-19T03:32:34;15.88;;;7.30;;
83018;SDS011;72834;40.104;18.336;2023-09-19T03:35:01;16.65;;;8.02;;
83018;SDS011;72834;40.104;18.336;2023-09-19T03:37:30;16.15;;;6.93;;
83018;SDS011;72834;40.104;18.336;2023-09-19T03:39:57;13.75;;;6.72;;
83018;SDS011;72834;40.104;18.336;2023-09-19T03:42:23;16.25;;;7.50;;
83018;SDS011;72834;40.104;18.336;2023-09-19T03:44:51;14.73;;;6.82;;
83018;SDS011;72834;40.104;18.336;2023-09-19T03:47:18;12.57;;;7.20;;
83018;SDS011;72834;40.104;18.336;2023-09-19T03:49:46;15.00;;;8.15;;
83018;SDS011;72834;40.104;18.336;2023-09-19T03:52:13;14.63;;;6.80;;
83018;SDS011;72834;40.104;18.336;2023-09-19T03:54:41;17.05;;;8.00;;
83018;SDS011;72834;40.104;18.336;2023-09-19T03:57:08;14.10;;;7.90;;
83018;SDS011;72834;40.104;18.336;2023-09-19T03:59:35;17.05;;;7.75;;
83018;SDS011;72834;40.104;18.336;2023-09-19T04:02:01;16.15;;;7.15;;
83018;SDS011;72834;40.104;18.336;2023-09-19T04:04:27;16.60;;;7.47;;
83018;SDS011;72834;40.104;18.336;2023-09-19T04:06:54;15.18;;;7.68;;
83018;SDS011;72834;40.104;18.336;2023-09-19T04:09:20;21.05;;;7.47;;
83018;SDS011;72834;40.104;18.336;2023-09-19T04:11:47;17.10;;;8.32;;
83018;SDS011;72834;40.104;18.336;2023-09-19T04:14:15;15.32;;;7.78;;
83018;SDS011;72834;40.104;18.336;2023-09-19T04:16:41;14.38;;;7.25;;
83018;SDS011;72834;40.104;18.336;2023-09-19T04:19:07;15.55;;;7.35;;
83018;SDS011;72834;40.104;18.336;2023-09-19T04:21:32;15.05;;;7.82;;
83018;SDS011;72834;40.104;18.336;2023-09-19T04:23:58;16.27;;;6.97;;
83018;SDS011;72834;40.104;18.336;2023-09-19T04:26:24;12.70;;;6.88;;
83018;SDS011;72834;40.104;18.336;2023-09-19T04:28:51;16.25;;;7.57;;
83018;SDS011;72834;40.104;18.336;2023-09-19T04:31:17;16.30;;;7.18;;
83018;SDS011;72834;40.104;18.336;2023-09-19T04:33:44;15.90;;;7.40;;
83018;SDS011;72834;40.104;18.336;2023-09-19T04:36:10;17.27;;;7.55;;
83018;SDS011;72834;40.104;18.336;2023-09-19T04:38:38;17.58;;;8.40;;
83018;SDS011;72834;40.104;18.336;2023-09-19T04:41:04;15.00;;;7.82;;
83018;SDS011;72834;40.104;18.336;2023-09-19T04:43:29;15.55;;;7.25;;
83018;SDS011;72834;40.104;18.336;2023-09-19T04:45:55;15.27;;;7.75;;
83018;SDS011;72834;40.104;18.336;2023-09-19T04:48:22;16.60;;;7.22;;
83018;SDS011;72834;40.104;18.336;2023-09-19T04:50:51;16.40;;;7.18;;
83018;SDS011;72834;40.104;18.336;2023-09-19T04:53:17;12.50;;;7.05;;
83018;SDS011;72834;40.104;18.336;2023-09-19T04:55:49;12.65;;;6.78;;
83018;SDS011;72834;40.104;18.336;2023-09-19T04:58:16;14.38;;;7.35;;
83018;SDS011;72834;40.104;18.336;2023-09-19T05:00:43;14.35;;;6.15;;
83018;SDS011;72834;40.104;18.336;2023-09-19T05:03:09;14.50;;;6.35;;
83018;SDS011;72834;40.104;18.336;2023-09-19T05:05:34;16.23;;;7.53;;
83018;SDS011;72834;40.104;18.336;2023-09-19T05:08:00;12.50;;;6.68;;
83018;SDS011;72834;40.104;18.336;2023-09-19T05:10:30;13.02;;;7.38;;
83018;SDS011;72834;40.104;18.336;2023-09-19T05:12:56;12.95;;;6.57;;
83018;SDS011;72834;40.104;18.336;2023-09-19T05:15:22;13.73;;;7.47;;
83018;SDS011;72834;40.104;18.336;2023-09-19T05:17:49;17.75;;;8.50;;
83018;SDS011;72834;40.104;18.336;2023-09-19T05:20:16;15.55;;;7.60;;
83018;SDS011;72834;40.104;18.336;2023-09-19T05:22:56;16.80;;;7.88;;
83018;SDS011;72834;40.104;18.336;2023-09-19T05:25:39;16.27;;;8.32;;
83018;SDS011;72834;40.104;18.336;2023-09-19T05:28:06;19.05;;;9.60;;
83018;SDS011;72834;40.104;18.336;2023-09-19T05:30:32;15.13;;;7.85;;
83018;SDS011;72834;40.104;18.336;2023-09-19T05:33:01;17.65;;;9.05;;
83018;SDS011;72834;40.104;18.336;2023-09-19T05:35:29;16.98;;;7.82;;
83018;SDS011;72834;40.104;18.336;2023-09-19T05:37:56;14.95;;;8.13;;
83018;SDS011;72834;40.104;18.336;2023-09-19T05:40:23;17.88;;;8.50;;
83018;SDS011;72834;40.104;18.336;2023-09-19T05:42:50;20.40;;;9.32;;
83018;SDS011;72834;40.104;18.336;2023-09-19T05:45:16;19.52;;;9.10;;
83018;SDS011;72834;40.104;18.336;2023-09-19T05:47:47;20.27;;;10.10;;
83018;SDS011;72834;40.104;18.336;2023-09-19T05:50:21;18.67;;;10.15;;
83018;SDS011;72834;40.104;18.336;2023-09-19T05:52:53;22.75;;;10.70;;
83018;SDS011;72834;40.104;18.336;2023-09-19T05:55:21;16.38;;;9.98;;
83018;SDS011;72834;40.104;18.336;2023-09-19T05:57:50;24.83;;;11.88;;
83018;SDS011;72834;40.104;18.336;2023-09-19T06:00:18;17.80;;;10.18;;
83018;SDS011;72834;40.104;18.336;2023-09-19T06:02:48;19.92;;;10.32;;
83018;SDS011;72834;40.104;18.336;2023-09-19T06:05:22;24.52;;;11.48;;
83018;SDS011;72834;40.104;18.336;2023-09-19T06:07:50;32.53;;;11.77;;
83018;SDS011;72834;40.104;18.336;2023-09-19T06:10:17;21.52;;;10.50;;
83018;SDS011;72834;40.104;18.336;2023-09-19T06:12:43;22.83;;;11.02;;
83018;SDS011;72834;40.104;18.336;2023-09-19T06:15:09;22.60;;;11.00;;
83018;SDS011;72834;40.104;18.336;2023-09-19T06:17:46;17.10;;;9.80;;
83018;SDS011;72834;40.104;18.336;2023-09-19T06:20:13;16.38;;;10.70;;
83018;SDS011;72834;40.104;18.336;2023-09-19T06:22:41;21.88;;;11.35;;
83018;SDS011;72834;40.104;18.336;2023-09-19T06:25:08;19.88;;;10.45;;
83018;SDS011;72834;40.104;18.336;2023-09-19T06:27:53;20.10;;;9.93;;
83018;SDS011;72834;40.104;18.336;2023-09-19T06:30:21;19.55;;;10.50;;
83018;SDS011;72834;40.104;18.336;2023-09-19T06:32:57;16.65;;;9.45;;
83018;SDS011;72834;40.104;18.336;2023-09-19T06:35:24;14.80;;;8.80;;
83018;SDS011;72834;40.104;18.336;2023-09-19T06:37:53;21.52;;;9.45;;
83018;SDS011;72834;40.104;18.336;2023-09-19T06:40:19;19.88;;;8.57;;
83018;SDS011;72834;40.104;18.336;2023-09-19T06:42:45;18.90;;;7.95;;
83018;SDS011;72834;40.104;18.336;2023-09-19T06:45:13;13.85;;;7.35;;
83018;SDS011;72834;40.104;18.336;2023-09-19T06:47:47;18.55;;;8.05;;
83018;SDS011;72834;40.104;18.336;2023-09-19T06:50:17;19.80;;;8.57;;
83018;SDS011;72834;40.104;18.336;2023-09-19T06:52:46;15.93;;;7.25;;
83018;SDS011;72834;40.104;18.336;2023-09-19T06:57:45;15.23;;;6.97;;
83018;SDS011;72834;40.104;18.336;2023-09-19T07:00:12;14.18;;;6.57;;
83018;SDS011;72834;40.104;18.336;2023-09-19T07:03:00;12.13;;;6.28;;
83018;SDS011;72834;40.104;18.336;2023-09-19T07:05:29;14.90;;;6.18;;
83018;SDS011;72834;40.104;18.336;2023-09-19T07:07:59;16.67;;;6.30;;
83018;SDS011;72834;40.104;18.336;2023-09-19T07:10:26;17.50;;;6.00;;
83018;SDS011;72834;40.104;18.336;2023-09-19T07:12:56;15.43;;;6.28;;
83018;SDS011;72834;40.104;18.336;2023-09-19T07:15:24;15.80;;;6.43;;
83018;SDS011;72834;40.104;18.336;2023-09-19T07:17:53;14.35;;;5.47;;
83018;SDS011;72834;40.104;18.336;2023-09-19T07:20:21;10.23;;;5.78;;
83018;SDS011;72834;40.104;18.336;2023-09-19T07:22:51;16.73;;;6.22;;
83018;SDS011;72834;40.104;18.336;2023-09-19T07:25:17;15.23;;;4.70;;
83018;SDS011;72834;40.104;18.336;2023-09-19T07:27:43;11.63;;;4.53;;
83018;SDS011;72834;40.104;18.336;2023-09-19T07:30:09;10.00;;;5.05;;
83018;SDS011;72834;40.104;18.336;2023-09-19T07:32:37;14.68;;;3.75;;
83018;SDS011;72834;40.104;18.336;2023-09-19T07:35:04;19.05;;;4.32;;
83018;SDS011;72834;40.104;18.336;2023-09-19T07:37:33;12.55;;;3.17;;
83018;SDS011;72834;40.104;18.336;2023-09-19T07:40:05;13.38;;;4.22;;
83018;SDS011;72834;40.104;18.336;2023-09-19T07:42:37;18.20;;;4.43;;
83018;SDS011;72834;40.104;18.336;2023-09-19T07:45:08;15.27;;;4.13;;
83018;SDS011;72834;40.104;18.336;2023-09-19T07:47:35;14.82;;;4.10;;
83018;SDS011;72834;40.104;18.336;2023-09-19T07:50:01;10.95;;;3.53;;
83018;SDS011;72834;40.104;18.336;2023-09-19T07:52:28;17.98;;;3.83;;
83018;SDS011;72834;40.104;18.336;2023-09-19T07:54:54;16.25;;;4.95;;
83018;SDS011;72834;40.104;18.336;2023-09-19T07:57:22;16.48;;;5.10;;
83018;SDS011;72834;40.104;18.336;2023-09-19T07:59:48;16.45;;;5.18;;
83018;SDS011;72834;40.104;18.336;2023-09-19T08:02:14;18.70;;;4.38;;
83018;SDS011;72834;40.104;18.336;2023-09-19T08:04:43;16.00;;;4.38;;
83018;SDS011;72834;40.104;18.336;2023-09-19T08:07:11;13.68;;;4.28;;
83018;SDS011;72834;40.104;18.336;2023-09-19T08:09:40;14.60;;;4.22;;
83018;SDS011;72834;40.104;18.336;2023-09-19T08:12:07;17.92;;;3.67;;
83018;SDS011;72834;40.104;18.336;2023-09-19T08:14:35;12.13;;;3.58;;
83018;SDS011;72834;40.104;18.336;2023-09-19T08:17:03;15.63;;;3.92;;
83018;SDS011;72834;40.104;18.336;2023-09-19T08:19:33;17.38;;;4.43;;
83018;SDS011;72834;40.104;18.336;2023-09-19T08:21:59;17.25;;;4.15;;
83018;SDS011;72834;40.104;18.336;2023-09-19T08:24:29;16.73;;;4.20;;
83018;SDS011;72834;40.104;18.336;2023-09-19T08:26:55;16.05;;;5.13;;
83018;SDS011;72834;40.104;18.336;2023-09-19T08:29:22;20.05;;;5.15;;
83018;SDS011;72834;40.104;18.336;2023-09-19T08:31:55;14.25;;;4.60;;
83018;SDS011;72834;40.104;18.336;2023-09-19T08:34:22;17.67;;;4.50;;
83018;SDS011;72834;40.104;18.336;2023-09-19T08:36:52;17.80;;;5.75;;
83018;SDS011;72834;40.104;18.336;2023-09-19T08:39:25;13.77;;;5.60;;
83018;SDS011;72834;40.104;18.336;2023-09-19T08:42:00;14.93;;;5.22;;
83018;SDS011;72834;40.104;18.336;2023-09-19T08:44:27;11.23;;;4.60;;
83018;SDS011;72834;40.104;18.336;2023-09-19T08:46:55;13.25;;;5.10;;
83018;SDS011;72834;40.104;18.336;2023-09-19T08:49:40;14.25;;;4.63;;
83018;SDS011;72834;40.104;18.336;2023-09-19T08:52:22;10.85;;;5.45;;
83018;SDS011;72834;40.104;18.336;2023-09-19T08:54:52;17.73;;;5.85;;
83018;SDS011;72834;40.104;18.336;2023-09-19T08:57:36;12.93;;;4.80;;
83018;SDS011;72834;40.104;18.336;2023-09-19T09:00:06;11.60;;;5.13;;
83018;SDS011;72834;40.104;18.336;2023-09-19T09:02:37;16.30;;;5.07;;
83018;SDS011;72834;40.104;18.336;2023-09-19T09:05:10;15.00;;;4.97;;
83018;SDS011;72834;40.104;18.336;2023-09-19T09:07:37;12.40;;;5.28;;
83018;SDS011;72834;40.104;18.336;2023-09-19T09:10:04;17.40;;;4.47;;
83018;SDS011;72834;40.104;18.336;2023-09-19T09:12:30;13.35;;;4.45;;
83018;SDS011;72834;40.104;18.336;2023-09-19T09:14:56;15.05;;;5.18;;
83018;SDS011;72834;40.104;18.336;2023-09-19T09:17:25;15.98;;;4.43;;
83018;SDS011;72834;40.104;18.336;2023-09-19T09:19:52;14.43;;;4.15;;
83018;SDS011;72834;40.104;18.336;2023-09-19T09:22:18;10.93;;;4.53;;
83018;SDS011;72834;40.104;18.336;2023-09-19T09:27:26;13.40;;;4.15;;
83018;SDS011;72834;40.104;18.336;2023-09-19T09:29:53;10.52;;;3.80;;
83018;SDS011;72834;40.104;18.336;2023-09-19T09:32:23;12.50;;;4.35;;
83018;SDS011;72834;40.104;18.336;2023-09-19T09:34:57;11.80;;;4.05;;
83018;SDS011;72834;40.104;18.336;2023-09-19T09:37:24;13.75;;;3.80;;
83018;SDS011;72834;40.104;18.336;2023-09-19T09:39:59;11.88;;;4.38;;
83018;SDS011;72834;40.104;18.336;2023-09-19T09:42:42;12.70;;;3.58;;
83018;SDS011;72834;40.104;18.336;2023-09-19T09:45:15;11.98;;;3.30;;
83018;SDS011;72834;40.104;18.336;2023-09-19T09:48:00;16.95;;;4.53;;
83018;SDS011;72834;40.104;18.336;2023-09-19T09:50:39;11.05;;;3.47;;
83018;SDS011;72834;40.104;18.336;2023-09-19T09:53:25;10.90;;;3.72;;
83018;SDS011;72834;40.104;18.336;2023-09-19T09:56:04;8.02;;;3.65;;
83018;SDS011;72834;40.104;18.336;2023-09-19T09:58:32;14.77;;;3.95;;
83018;SDS011;72834;40.104;18.336;2023-09-19T10:01:02;16.27;;;4.57;;
83018;SDS011;72834;40.104;18.336;2023-09-19T10:03:40;11.70;;;3.67;;
83018;SDS011;72834;40.104;18.336;2023-09-19T10:06:14;15.15;;;4.82;;
83018;SDS011;72834;40.104;18.336;2023-09-19T10:09:04;17.98;;;4.57;;
83018;SDS011;72834;40.104;18.336;2023-09-19T10:11:40;17.95;;;4.80;;
83018;SDS011;72834;40.104;18.336;2023-09-19T10:14:11;8.73;;;3.40;;
83018;SDS011;72834;40.104;18.336;2023-09-19T10:16:40;14.07;;;3.90;;
83018;SDS011;72834;40.104;18.336;2023-09-19T10:19:14;10.30;;;3.58;;
83018;SDS011;72834;40.104;18.336;2023-09-19T10:21:50;10.35;;;3.70;;
83018;SDS011;72834;40.104;18.336;2023-09-19T10:24:18;11.43;;;3.38;;
83018;SDS011;72834;40.104;18.336;2023-09-19T10:26:46;8.68;;;3.45;;
83018;SDS011;72834;40.104;18.336;2023-09-19T10:29:15;14.07;;;3.20;;
83018;SDS011;72834;40.104;18.336;2023-09-19T10:31:44;12.50;;;3.78;;
83018;SDS011;72834;40.104;18.336;2023-09-19T10:34:16;9.75;;;3.38;;
83018;SDS011;72834;40.104;18.336;2023-09-19T10:36:46;12.68;;;2.97;;
83018;SDS011;72834;40.104;18.336;2023-09-19T10:39:15;11.20;;;3.15;;
83018;SDS011;72834;40.104;18.336;2023-09-19T10:41:47;13.63;;;3.72;;
83018;SDS011;72834;40.104;18.336;2023-09-19T10:44:25;9.75;;;2.22;;
83018;SDS011;72834;40.104;18.336;2023-09-19T10:46:52;11.38;;;3.72;;
83018;SDS011;72834;40.104;18.336;2023-09-19T10:49:21;15.05;;;3.47;;
83018;SDS011;72834;40.104;18.336;2023-09-19T10:51:50;12.00;;;4.03;;
83018;SDS011;72834;40.104;18.336;2023-09-19T10:54:23;14.98;;;4.20;;
83018;SDS011;72834;40.104;18.336;2023-09-19T10:56:57;10.63;;;3.47;;
83018;SDS011;72834;40.104;18.336;2023-09-19T10:59:24;12.23;;;3.67;;
83018;SDS011;72834;40.104;18.336;2023-09-19T11:01:53;12.05;;;3.65;;
83018;SDS011;72834;40.104;18.336;2023-09-19T11:07:02;14.75;;;2.97;;
83018;SDS011;72834;40.104;18.336;2023-09-19T11:09:46;9.40;;;2.63;;
83018;SDS011;72834;40.104;18.336;2023-09-19T11:13:14;10.63;;;3.72;;
83018;SDS011;72834;40.104;18.336;2023-09-19T11:15:11;15.93;;;3.50;;
83018;SDS011;72834;40.104;18.336;2023-09-19T11:26:57;10.68;;;3.60;;
83018;SDS011;72834;40.104;18.336;2023-09-19T11:29:36;9.90;;;3.50;;
83018;SDS011;72834;40.104;18.336;2023-09-19T11:32:02;9.80;;;4.05;;
83018;SDS011;72834;40.104;18.336;2023-09-19T11:39:37;12.23;;;3.30;;
83018;SDS011;72834;40.104;18.336;2023-09-19T11:45:07;8.57;;;2.78;;
83018;SDS011;72834;40.104;18.336;2023-09-19T11:47:55;11.20;;;3.40;;
83018;SDS011;72834;40.104;18.336;2023-09-19T11:50:21;13.32;;;3.78;;
83018;SDS011;72834;40.104;18.336;2023-09-19T11:52:50;11.40;;;3.38;;
83018;SDS011;72834;40.104;18.336;2023-09-19T11:55:20;11.52;;;3.17;;
83018;SDS011;72834;40.104;18.336;2023-09-19T11:57:48;8.52;;;3.25;;
83018;SDS011;72834;40.104;18.336;2023-09-19T12:00:18;15.85;;;3.28;;
83018;SDS011;72834;40.104;18.336;2023-09-19T12:02:47;10.43;;;3.00;;
83018;SDS011;72834;40.104;18.336;2023-09-19T12:05:16;12.65;;;3.38;;
83018;SDS011;72834;40.104;18.336;2023-09-19T12:07:53;13.23;;;3.00;;
83018;SDS011;72834;40.104;18.336;2023-09-19T12:10:19;10.07;;;3.15;;
83018;SDS011;72834;40.104;18.336;2023-09-19T12:12:48;10.23;;;3.00;;
83018;SDS011;72834;40.104;18.336;2023-09-19T12:15:28;11.88;;;3.35;;
83018;SDS011;72834;40.104;18.336;2023-09-19T12:17:59;14.55;;;3.40;;
83018;SDS011;72834;40.104;18.336;2023-09-19T12:20:41;10.82;;;3.08;;
83018;SDS011;72834;40.104;18.336;2023-09-19T12:23:14;11.38;;;2.92;;
83018;SDS011;72834;40.104;18.336;2023-09-19T12:25:43;8.45;;;2.30;;
83018;SDS011;72834;40.104;18.336;2023-09-19T12:28:12;7.88;;;2.67;;
83018;SDS011;72834;40.104;18.336;2023-09-19T12:30:39;11.13;;;3.78;;
83018;SDS011;72834;40.104;18.336;2023-09-19T12:33:19;30.90;;;5.45;;
83018;SDS011;72834;40.104;18.336;2023-09-19T12:35:46;12.30;;;2.95;;
83018;SDS011;72834;40.104;18.336;2023-09-19T12:38:27;12.90;;;3.53;;
83018;SDS011;72834;40.104;18.336;2023-09-19T12:40:57;11.32;;;3.67;;
83018;SDS011;72834;40.104;18.336;2023-09-19T12:43:25;11.35;;;3.67;;
83018;SDS011;72834;40.104;18.336;2023-09-19T12:45:53;8.77;;;2.60;;
83018;SDS011;72834;40.104;18.336;2023-09-19T12:48:23;10.90;;;3.35;;
83018;SDS011;72834;40.104;18.336;2023-09-19T12:51:06;9.43;;;2.40;;
83018;SDS011;72834;40.104;18.336;2023-09-19T12:53:42;9.05;;;2.75;;
83018;SDS011;72834;40.104;18.336;2023-09-19T12:56:10;8.05;;;2.72;;
83018;SDS011;72834;40.104;18.336;2023-09-19T12:58:55;11.18;;;2.85;;
83018;SDS011;72834;40.104;18.336;2023-09-19T13:01:22;14.63;;;3.42;;
83018;SDS011;72834;40.104;18.336;2023-09-19T13:06:47;12.30;;;3.80;;
83018;SDS011;72834;40.104;18.336;2023-09-19T13:09:15;13.43;;;3.13;;
83018;SDS011;72834;40.104;18.336;2023-09-19T13:11:42;13.20;;;3.88;;
83018;SDS011;72834;40.104;18.336;2023-09-19T13:14:21;13.90;;;3.65;;
83018;SDS011;72834;40.104;18.336;2023-09-19T13:17:02;10.25;;;2.85;;
83018;SDS011;72834;40.104;18.336;2023-09-19T13:22:40;11.13;;;3.30;;
83018;SDS011;72834;40.104;18.336;2023-09-19T13:25:11;15.02;;;4.53;;
83018;SDS011;72834;40.104;18.336;2023-09-19T13:27:43;16.50;;;4.57;;
83018;SDS011;72834;40.104;18.336;2023-09-19T13:30:11;13.50;;;3.40;;
83018;SDS011;72834;40.104;18.336;2023-09-19T13:32:38;10.27;;;3.30;;
83018;SDS011;72834;40.104;18.336;2023-09-19T13:35:06;12.98;;;3.72;;
83018;SDS011;72834;40.104;18.336;2023-09-19T13:37:35;13.45;;;3.63;;
83018;SDS011;72834;40.104;18.336;2023-09-19T13:40:15;10.00;;;4.00;;
83018;SDS011;72834;40.104;18.336;2023-09-19T13:42:41;11.13;;;3.85;;
83018;SDS011;72834;40.104;18.336;2023-09-19T13:45:08;12.85;;;3.47;;
83018;SDS011;72834;40.104;18.336;2023-09-19T13:47:37;9.13;;;3.53;;
83018;SDS011;72834;40.104;18.336;2023-09-19T13:50:03;12.60;;;3.38;;
83018;SDS011;72834;40.104;18.336;2023-09-19T13:52:30;8.48;;;3.58;;
83018;SDS011;72834;40.104;18.336;2023-09-19T13:54:57;10.93;;;3.35;;
83018;SDS011;72834;40.104;18.336;2023-09-19T13:57:23;10.32;;;3.50;;
83018;SDS011;72834;40.104;18.336;2023-09-19T13:59:52;14.18;;;3.58;;
83018;SDS011;72834;40.104;18.336;2023-09-19T14:02:19;9.20;;;3.50;;
83018;SDS011;72834;40.104;18.336;2023-09-19T14:04:49;12.45;;;3.35;;
83018;SDS011;72834;40.104;18.336;2023-09-19T14:07:20;8.87;;;3.50;;
83018;SDS011;72834;40.104;18.336;2023-09-19T14:09:46;12.65;;;3.25;;
83018;SDS011;72834;40.104;18.336;2023-09-19T14:12:13;8.60;;;3.58;;
83018;SDS011;72834;40.104;18.336;2023-09-19T14:14:40;13.30;;;3.42;;
83018;SDS011;72834;40.104;18.336;2023-09-19T14:17:06;13.45;;;3.53;;
83018;SDS011;72834;40.104;18.336;2023-09-19T14:19:32;12.18;;;3.85;;
83018;SDS011;72834;40.104;18.336;2023-09-19T14:22:00;10.35;;;3.70;;
83018;SDS011;72834;40.104;18.336;2023-09-19T14:24:32;21.98;;;5.53;;
83018;SDS011;72834;40.104;18.336;2023-09-19T14:26:59;12.35;;;4.35;;
83018;SDS011;72834;40.104;18.336;2023-09-19T14:29:25;14.23;;;4.53;;
83018;SDS011;72834;40.104;18.336;2023-09-19T14:31:51;18.15;;;6.75;;
83018;SDS011;72834;40.104;18.336;2023-09-19T14:34:17;11.90;;;3.58;;
83018;SDS011;72834;40.104;18.336;2023-09-19T14:36:44;9.73;;;3.50;;
83018;SDS011;72834;40.104;18.336;2023-09-19T14:39:10;8.80;;;3.60;;
83018;SDS011;72834;40.104;18.336;2023-09-19T14:41:36;12.60;;;3.13;;
83018;SDS011;72834;40.104;18.336;2023-09-19T14:44:02;12.93;;;4.25;;
83018;SDS011;72834;40.104;18.336;2023-09-19T14:46:30;13.25;;;3.67;;
83018;SDS011;72834;40.104;18.336;2023-09-19T14:48:56;9.55;;;3.00;;
83018;SDS011;72834;40.104;18.336;2023-09-19T14:51:25;12.52;;;3.47;;
83018;SDS011;72834;40.104;18.336;2023-09-19T14:53:50;9.20;;;3.38;;
83018;SDS011;72834;40.104;18.336;2023-09-19T14:56:18;12.02;;;4.40;;
83018;SDS011;72834;40.104;18.336;2023-09-19T14:58:45;12.55;;;3.53;;
83018;SDS011;72834;40.104;18.336;2023-09-19T15:01:13;15.80;;;3.75;;
83018;SDS011;72834;40.104;18.336;2023-09-19T15:03:40;9.77;;;3.72;;
83018;SDS011;72834;40.104;18.336;2023-09-19T15:06:11;14.48;;;4.13;;
83018;SDS011;72834;40.104;18.336;2023-09-19T15:08:41;12.52;;;3.50;;
83018;SDS011;72834;40.104;18.336;2023-09-19T15:11:16;20.25;;;3.63;;
83018;SDS011;72834;40.104;18.336;2023-09-19T15:13:43;9.90;;;3.50;;
83018;SDS011;72834;40.104;18.336;2023-09-19T15:16:10;10.20;;;3.03;;
83018;SDS011;72834;40.104;18.336;2023-09-19T15:18:37;10.52;;;3.33;;
83018;SDS011;72834;40.104;18.336;2023-09-19T15:21:04;12.77;;;3.17;;
83018;SDS011;72834;40.104;18.336;2023-09-19T15:23:31;13.68;;;3.25;;
83018;SDS011;72834;40.104;18.336;2023-09-19T15:26:02;16.88;;;4.22;;
83018;SDS011;72834;40.104;18.336;2023-09-19T15:28:33;9.57;;;3.63;;